Time;durP1;ratioP1;P1;durP2;ratioP2;P2;SDS_P1;SDS_P2;PMS_P1;PMS_P2;Temp;Humidity;BMP_temperature;BMP_pressure;BME280_temperature;BME280_humidity;BME280_pressure;Samples;Min_cycle;Max_cycle;Signal;HPM_P1;HPM_P2
2024/01/14 00:01:17;;;;;;;24.67;11.17;;;;;;;-2.36;91.62;62658.19;5071758;28;20208;-52
2024/01/14 00:03:42;;;;;;;23.53;10.83;;;;;;;-2.18;90.41;62677.09;5053815;28;20218;-53
2024/01/14 00:06:08;;;;;;;21.73;9.77;;;;;;;-2.11;88.42;62685.19;5071770;28;20201;-53
2024/01/14 00:08:33;;;;;;;16.57;9.03;;;;;;;-2.34;89.23;62659.81;5053656;28;20904;-53
2024/01/14 00:10:59;;;;;;;19.80;10.60;;;;;;;-2.23;87.77;62671.69;5071695;28;20199;-53
2024/01/14 00:13:25;;;;;;;33.60;11.50;;;;;;;-2.32;89.36;62662.50;5071547;28;20654;-52
2024/01/14 00:15:50;;;;;;;18.10;9.43;;;;;;;-2.50;89.41;62642.53;5071437;28;20269;-52
2024/01/14 00:18:16;;;;;;;17.63;10.07;;;;;;;-2.38;89.23;62653.03;5082885;22;20240;-54
2024/01/14 00:20:42;;;;;;;23.23;11.43;;;;;;;-2.48;89.88;62647.16;5071600;28;20188;-52
2024/01/14 00:23:08;;;;;;;20.17;10.37;;;;;;;-2.52;89.04;62637.91;5071443;28;20239;-52
2024/01/14 00:25:34;;;;;;;17.40;9.57;;;;;;;-2.59;88.67;62633.88;5053405;28;20219;-54
2024/01/14 00:27:59;;;;;;;19.03;9.57;;;;;;;-2.60;90.31;62632.81;5071307;28;20735;-53
2024/01/14 00:30:25;;;;;;;18.60;9.93;;;;;;;-2.54;89.58;62635.75;5071667;28;20712;-54
2024/01/14 00:32:50;;;;;;;18.10;8.37;;;;;;;-2.52;89.50;62643.38;5071726;28;20584;-54
2024/01/14 00:35:16;;;;;;;22.97;10.17;;;;;;;-2.75;92.22;62616.09;5071395;28;20228;-52
2024/01/14 00:37:41;;;;;;;17.60;9.47;;;;;;;-2.63;89.85;62629.03;5071504;28;20220;-54
2024/01/14 00:40:10;;;;;;;14.27;8.90;;;;;;;-2.68;91.27;62626.09;5071377;28;20189;-54
2024/01/14 00:42:36;;;;;;;17.87;9.40;;;;;;;-2.72;93.84;62621.78;5071379;28;20291;-53
2024/01/14 00:45:02;;;;;;;19.77;11.17;;;;;;;-2.68;93.35;62621.19;5071200;28;20318;-52
2024/01/14 00:47:30;;;;;;;19.93;9.43;;;;;;;-2.56;92.79;62634.13;5071268;28;20212;-53
2024/01/14 00:49:56;;;;;;;18.93;9.10;;;;;;;-2.52;94.23;62640.38;5071073;28;20269;-54
2024/01/14 00:52:22;;;;;;;21.37;10.13;;;;;;;-2.66;94.58;62625.78;5071047;28;20222;-52
2024/01/14 00:54:47;;;;;;;20.67;9.83;;;;;;;-2.52;92.01;62640.91;5053025;28;20184;-52
2024/01/14 00:57:13;;;;;;;19.10;10.00;;;;;;;-2.47;91.77;62645.78;5071099;28;20563;-53
2024/01/14 00:59:39;;;;;;;18.87;8.83;;;;;;;-2.58;93.81;62634.97;5070942;28;20651;-51
2024/01/14 01:02:05;;;;;;;21.53;10.90;;;;;;;-2.68;97.06;62623.63;5071093;28;20214;-57
2024/01/14 01:04:30;;;;;;;21.23;10.80;;;;;;;-2.70;96.00;62622.03;5071066;28;20194;-53
2024/01/14 01:06:56;;;;;;;21.67;10.10;;;;;;;-2.69;95.04;62623.09;5070817;28;20235;-51
2024/01/14 01:09:22;;;;;;;20.13;10.23;;;;;;;-2.48;91.95;62644.69;5052111;28;20259;-53
2024/01/14 01:11:47;;;;;;;19.43;10.30;;;;;;;-2.59;90.90;62631.41;5052698;28;20650;-53
2024/01/14 01:14:14;;;;;;;18.77;9.87;;;;;;;-2.64;93.28;62627.97;5070699;28;20194;-52
2024/01/14 01:16:40;;;;;;;17.70;9.43;;;;;;;-2.62;90.82;62627.66;5070752;28;20227;-54
2024/01/14 01:19:06;;;;;;;22.10;10.20;;;;;;;-2.75;93.37;62616.09;5052668;28;20232;-52
2024/01/14 01:21:31;;;;;;;19.43;10.10;;;;;;;-3.03;91.92;62588.34;5070785;28;20266;-52
2024/01/14 01:23:57;;;;;;;18.63;9.60;;;;;;;-2.95;92.61;62596.97;5052659;28;20241;-52
2024/01/14 01:26:23;;;;;;;18.33;9.60;;;;;;;-2.96;93.40;62593.97;5052745;28;20220;-51
2024/01/14 01:28:48;;;;;;;20.97;9.03;;;;;;;-2.98;92.79;62591.81;5052514;28;20226;-53
2024/01/14 01:31:14;;;;;;;17.97;9.37;;;;;;;-2.89;94.24;62598.53;5070411;28;20200;-53
2024/01/14 01:33:39;;;;;;;20.97;8.70;;;;;;;-2.68;91.87;62623.63;5070321;28;20331;-53
2024/01/14 01:36:06;;;;;;;27.10;10.20;;;;;;;-3.03;94.28;62585.88;5052438;28;20189;-54
2024/01/14 01:38:32;;;;;;;17.40;9.20;;;;;;;-3.02;94.93;62587.50;5070532;28;20213;-53
2024/01/14 01:40:58;;;;;;;19.40;9.80;;;;;;;-2.91;94.63;62596.38;5070463;28;20648;-53
2024/01/14 01:43:23;;;;;;;16.67;9.33;;;;;;;-2.88;96.86;62599.59;5070423;28;20230;-52
2024/01/14 01:45:50;;;;;;;17.67;8.93;;;;;;;-2.60;92.50;62632.28;5070339;28;20215;-53
2024/01/14 01:48:15;;;;;;;21.13;10.00;;;;;;;-2.75;92.88;62614.16;5070347;28;20206;-53
2024/01/14 01:50:43;;;;;;;19.20;9.87;;;;;;;-2.79;91.26;62609.84;5070160;28;20248;-53
2024/01/14 01:53:09;;;;;;;18.97;10.23;;;;;;;-2.77;90.82;62616.41;5070048;28;20216;-54
2024/01/14 01:55:34;;;;;;;18.70;9.97;;;;;;;-2.76;90.51;62620.47;5052185;28;20199;-56
2024/01/14 01:58:00;;;;;;;21.13;10.30;;;;;;;-2.76;89.95;62617.47;5070151;28;20213;-53
2024/01/14 02:00:26;;;;;;;20.27;9.53;;;;;;;-2.90;91.39;62597.97;5069315;28;20265;-53
2024/01/14 02:02:52;;;;;;;19.30;9.43;;;;;;;-2.96;90.91;62593.44;5070419;28;20247;-52
2024/01/14 02:05:19;;;;;;;19.20;9.63;;;;;;;-2.99;92.15;62590.19;5051972;28;20257;-53
2024/01/14 02:07:44;;;;;;;18.33;9.47;;;;;;;-2.90;91.94;62599.91;5070263;28;20297;-53
2024/01/14 02:10:10;;;;;;;22.37;8.17;;;;;;;-2.93;91.21;62596.69;5070288;28;20187;-52
2024/01/14 02:12:36;;;;;;;17.57;9.10;;;;;;;-2.85;90.59;62605.31;5052217;28;20263;-51
2024/01/14 02:15:01;;;;;;;17.33;8.97;;;;;;;-2.89;92.02;62603.44;5069988;28;20218;-53
2024/01/14 02:17:27;;;;;;;16.63;8.47;;;;;;;-2.96;92.16;62593.44;5069971;28;20220;-56
2024/01/14 02:19:52;;;;;;;23.47;10.27;;;;;;;-2.95;90.79;62595.03;5069973;28;20613;-53
2024/01/14 02:22:29;;;;;;;17.77;8.93;;;;;;;-2.78;90.01;62612.84;5073723;28;20214;-52
2024/01/14 02:24:55;;;;;;;19.20;9.80;;;;;;;-2.80;90.12;62610.69;5055313;28;20196;-52
2024/01/14 02:27:22;;;;;;;16.20;9.03;;;;;;;-2.92;90.79;62598.28;5073616;28;20224;-51
2024/01/14 02:29:48;;;;;;;20.97;9.63;;;;;;;-2.89;90.79;62603.97;5073101;28;20226;-52
2024/01/14 02:32:13;;;;;;;16.97;9.00;;;;;;;-3.00;92.49;62586.66;5073376;28;20228;-53
2024/01/14 02:34:39;;;;;;;23.37;10.33;;;;;;;-3.13;91.44;62575.63;5073208;28;20706;-51
2024/01/14 02:37:11;;;;;;;16.07;9.13;;;;;;;-3.07;92.49;62582.09;5055561;28;20260;-53
2024/01/14 02:39:37;;;;;;;20.13;9.57;;;;;;;-3.24;96.16;62563.22;5056281;28;20198;-54
2024/01/14 02:42:03;;;;;;;17.73;9.70;;;;;;;-3.22;94.46;62565.94;5073122;28;20215;-52
2024/01/14 02:44:28;;;;;;;19.63;9.80;;;;;;;-3.12;93.82;62578.63;5073448;28;20250;-51
2024/01/14 02:46:54;;;;;;;21.83;10.60;;;;;;;-3.16;94.28;62572.41;5072985;28;20214;-53
2024/01/14 02:49:20;;;;;;;22.07;9.10;;;;;;;-3.14;92.73;62574.56;5073123;28;20247;-52
2024/01/14 02:51:46;;;;;;;19.73;9.90;;;;;;;-3.20;92.89;62570.56;5073023;28;20602;-52
2024/01/14 02:54:12;;;;;;;16.97;9.37;;;;;;;-3.12;93.15;62576.72;5055125;28;20190;-52
2024/01/14 02:56:38;;;;;;;17.90;9.03;;;;;;;-3.11;97.10;62577.78;5073111;28;20184;-52
2024/01/14 02:59:04;;;;;;;19.43;10.30;;;;;;;-3.05;95.56;62586.19;5072649;28;20727;-52
2024/01/14 03:01:30;;;;;;;20.63;10.47;;;;;;;-2.90;94.75;62600.44;5072824;28;20193;-52
2024/01/14 03:03:56;;;;;;;18.17;9.27;;;;;;;-2.96;93.95;62590.97;5072601;28;20209;-52
2024/01/14 03:06:21;;;;;;;17.60;9.57;;;;;;;-3.04;98.99;62584.81;5054565;28;20255;-53
2024/01/14 03:08:47;;;;;;;20.43;10.87;;;;;;;-2.85;92.93;62605.84;5054751;28;20240;-52
2024/01/14 03:11:12;;;;;;;21.07;9.57;;;;;;;-3.13;95.21;62575.09;5072757;28;20279;-53
2024/01/14 03:13:38;;;;;;;16.73;8.20;;;;;;;-2.87;92.38;62603.16;5072539;28;20272;-53
2024/01/14 03:16:03;;;;;;;18.07;8.37;;;;;;;-3.08;91.68;62580.47;5072415;28;20614;-52
2024/01/14 03:18:29;;;;;;;14.53;7.77;;;;;;;-3.22;92.51;62562.94;5072461;28;20220;-51
2024/01/14 03:20:54;;;;;;;14.60;8.13;;;;;;;-3.17;90.55;62568.31;5054464;28;20186;-52
2024/01/14 03:23:20;;;;;;;12.00;6.57;;;;;;;-3.52;92.95;62531.66;5072437;28;20216;-57
2024/01/14 03:25:46;;;;;;;13.87;6.80;;;;;;;-3.23;91.26;62564.31;5072212;28;20213;-51
2024/01/14 03:28:11;;;;;;;19.77;7.83;;;;;;;-3.39;91.61;62549.53;5072225;28;20211;-54
2024/01/14 03:30:37;;;;;;;16.53;8.17;;;;;;;-3.48;94.57;62537.91;5072236;28;20190;-52
2024/01/14 03:33:03;;;;;;;16.33;8.27;;;;;;;-3.39;92.90;62547.59;5071916;28;20217;-51
2024/01/14 03:35:29;;;;;;;17.40;8.03;;;;;;;-3.50;93.50;62533.28;5072395;28;20666;-53
2024/01/14 03:37:54;;;;;;;17.57;7.73;;;;;;;-3.43;92.57;62543.81;5072482;28;20277;-52
2024/01/14 03:40:20;;;;;;;16.13;7.63;;;;;;;-3.36;91.00;62548.38;5072250;28;20194;-53
2024/01/14 03:42:46;;;;;;;17.03;7.87;;;;;;;-3.49;93.10;62536.81;5072157;28;20216;-56
2024/01/14 03:45:11;;;;;;;14.70;7.90;;;;;;;-3.54;96.02;62531.44;5072075;28;20240;-52
2024/01/14 03:47:37;;;;;;;13.93;7.70;;;;;;;-3.17;91.52;62570.78;5072098;28;20219;-53
2024/01/14 03:50:03;;;;;;;13.87;7.80;;;;;;;-3.35;92.83;62551.38;5072042;28;20212;-53
2024/01/14 03:52:28;;;;;;;15.60;6.93;;;;;;;-3.16;90.19;62571.84;5072106;28;20211;-53
2024/01/14 03:54:54;;;;;;;14.03;7.67;;;;;;;-3.45;90.64;62541.66;5069725;28;20178;-51
2024/01/14 03:57:20;;;;;;;12.37;7.10;;;;;;;-3.67;93.72;62517.41;5053273;28;20260;-53
2024/01/14 03:59:46;;;;;;;15.77;7.27;;;;;;;-3.72;93.01;62512.56;5071891;28;20217;-53
2024/01/14 04:02:11;;;;;;;18.07;7.53;;;;;;;-3.78;92.79;62505.56;5071881;28;20211;-56
2024/01/14 04:04:37;;;;;;;16.30;7.43;;;;;;;-3.59;91.10;62526.56;5071807;28;20188;-52
2024/01/14 04:07:02;;;;;;;15.83;7.43;;;;;;;-3.39;89.35;62549.53;5071710;28;20214;-52
2024/01/14 04:09:28;;;;;;;15.30;8.40;;;;;;;-3.66;89.41;62519.03;5071993;28;20191;-51
2024/01/14 04:11:54;;;;;;;17.67;8.23;;;;;;;-3.78;91.29;62505.56;5053851;28;20207;-52
2024/01/14 04:14:20;;;;;;;18.43;8.17;;;;;;;-4.00;93.13;62479.91;5071796;28;20189;-52
2024/01/14 04:16:46;;;;;;;14.43;7.00;;;;;;;-3.98;93.38;62484.53;5071821;28;20242;-52
2024/01/14 04:19:11;;;;;;;13.23;7.47;;;;;;;-3.96;93.17;62481.75;5071554;28;20660;-51
2024/01/14 04:21:37;;;;;;;17.33;9.03;;;;;;;-3.77;92.29;62509.09;5053584;28;20224;-53
2024/01/14 04:24:02;;;;;;;18.20;8.73;;;;;;;-3.91;93.21;62494.53;5071523;28;20195;-56
2024/01/14 04:26:35;;;;;;;14.57;8.73;;;;;;;-3.80;92.72;62505.84;5053460;28;20682;-53
2024/01/14 04:29:01;;;;;;;21.13;8.27;;;;;;;-3.90;94.23;62490.16;5071354;28;20196;-53
2024/01/14 04:31:29;;;;;;;14.57;8.50;;;;;;;-3.89;97.34;62494.22;5071352;28;20200;-53
2024/01/14 04:33:56;;;;;;;20.43;9.53;;;;;;;-3.81;96.54;62502.84;5071334;28;20186;-52
2024/01/14 04:36:22;;;;;;;18.37;10.20;;;;;;;-3.79;95.67;62505.00;5071347;28;20243;-56
2024/01/14 04:38:47;;;;;;;18.70;10.43;;;;;;;-3.80;94.91;62500.94;5071083;28;20737;-52
2024/01/14 04:41:13;;;;;;;21.43;10.73;;;;;;;-3.88;98.45;62492.84;5071225;28;20199;-50
2024/01/14 04:43:38;;;;;;;19.43;9.53;;;;;;;-3.70;95.65;62512.25;5071085;28;20679;-51
2024/01/14 04:46:07;;;;;;;19.50;10.00;;;;;;;-3.85;96.55;62498.00;5071295;28;20621;-52
2024/01/14 04:48:33;;;;;;;20.17;10.23;;;;;;;-3.71;94.86;62513.63;5070999;28;20210;-52
2024/01/14 04:50:59;;;;;;;24.83;10.87;;;;;;;-3.83;96.09;62498.25;5053144;28;20312;-52
2024/01/14 04:53:24;;;;;;;19.70;11.63;;;;;;;-3.73;95.04;62510.94;5052960;28;20217;-52
2024/01/14 04:55:51;;;;;;;20.43;10.37;;;;;;;-3.95;98.11;62487.22;5070856;28;20196;-52
2024/01/14 04:58:16;;;;;;;19.87;10.30;;;;;;;-3.79;96.20;62506.94;5070914;28;20324;-52
2024/01/14 05:00:42;;;;;;;25.17;12.00;;;;;;;-3.85;95.97;62496.09;5052857;28;20267;-52
2024/01/14 05:03:07;;;;;;;24.67;11.03;;;;;;;-4.03;100.00;62476.16;5036540;28;20220;-52
2024/01/14 05:05:33;;;;;;;22.67;11.57;;;;;;;-4.02;100.00;62482.16;5070971;28;20229;-51
2024/01/14 05:07:58;;;;;;;21.90;10.77;;;;;;;-3.98;100.00;62484.53;5070901;28;20568;-52
2024/01/14 05:10:24;;;;;;;23.30;10.57;;;;;;;-3.88;100.00;62492.84;5053196;28;20673;-51
2024/01/14 05:12:49;;;;;;;22.30;11.90;;;;;;;-3.77;99.51;62504.72;5070731;28;20306;-54
2024/01/14 05:15:15;;;;;;;24.87;11.97;;;;;;;-3.76;98.78;62508.25;5070707;28;20203;-51
2024/01/14 05:17:40;;;;;;;21.23;10.77;;;;;;;-3.44;96.70;62545.22;5052641;28;20225;-53
2024/01/14 05:20:08;;;;;;;18.70;10.13;;;;;;;-3.55;96.75;62533.34;5070955;28;20193;-51
2024/01/14 05:22:33;;;;;;;22.30;10.37;;;;;;;-3.47;95.12;62539.50;5070841;28;20209;-52
2024/01/14 05:24:59;;;;;;;20.43;11.30;;;;;;;-3.56;95.64;62524.34;5070541;28;20193;-53
2024/01/14 05:27:24;;;;;;;21.90;10.57;;;;;;;-3.55;98.98;62530.88;5070826;28;20633;-52
2024/01/14 05:29:50;;;;;;;20.43;9.97;;;;;;;-3.46;97.90;62540.06;5070621;28;20192;-53
2024/01/14 05:32:17;;;;;;;18.63;10.97;;;;;;;-3.45;97.70;62541.13;5052641;28;20207;-57
2024/01/14 05:34:44;;;;;;;22.60;11.00;;;;;;;-3.34;95.35;62555.44;5052496;28;20619;-52
2024/01/14 05:37:11;;;;;;;30.40;10.90;;;;;;;-3.37;95.70;62549.22;5070467;28;20213;-52
2024/01/14 05:39:37;;;;;;;22.27;11.33;;;;;;;-3.50;95.56;62533.28;5070429;28;20201;-52
2024/01/14 05:42:03;;;;;;;23.53;12.17;;;;;;;-3.42;96.82;62544.91;5070424;28;20270;-52
2024/01/14 05:44:30;;;;;;;20.67;11.13;;;;;;;-3.41;95.93;62545.97;5070271;28;20196;-53
2024/01/14 05:46:56;;;;;;;23.57;11.57;;;;;;;-3.49;97.59;62536.81;5070465;28;20216;-50
2024/01/14 05:49:22;;;;;;;21.30;11.03;;;;;;;-3.42;96.88;62542.44;5070243;28;20246;-52
2024/01/14 05:51:47;;;;;;;21.60;10.53;;;;;;;-3.06;94.69;62582.66;5052341;28;20276;-52
2024/01/14 05:54:14;;;;;;;20.73;11.07;;;;;;;-3.27;95.50;62557.53;5070299;28;20278;-52
2024/01/14 05:56:40;;;;;;;25.77;11.13;;;;;;;-3.35;94.70;62553.84;5080410;22;20719;-52
2024/01/14 05:59:06;;;;;;;19.47;11.50;;;;;;;-3.42;94.99;62546.81;5056059;28;20210;-53
2024/01/14 06:01:31;;;;;;;18.40;11.13;;;;;;;-3.57;94.30;62530.63;5073597;28;20189;-52
2024/01/14 06:03:57;;;;;;;23.10;11.50;;;;;;;-3.53;94.21;62533.03;5073855;28;20233;-52
2024/01/14 06:06:23;;;;;;;21.33;10.93;;;;;;;-3.61;96.19;62523.88;5073430;28;20259;-52
2024/01/14 06:08:48;;;;;;;24.43;11.30;;;;;;;-3.49;93.68;62534.34;5055628;28;20285;-53
2024/01/14 06:11:14;;;;;;;20.43;9.40;;;;;;;-3.50;93.94;62538.19;5055550;28;20206;-58
2024/01/14 06:13:44;;;;;;;15.20;8.73;;;;;;;-3.53;94.41;62533.03;5073500;28;20322;-53
2024/01/14 06:16:11;;;;;;;15.60;8.43;;;;;;;-3.68;91.83;62513.88;5073776;28;20294;-53
2024/01/14 06:18:39;;;;;;;15.00;8.13;;;;;;;-3.68;95.24;62516.88;5055344;28;20625;-55
2024/01/14 06:21:04;;;;;;;16.10;7.30;;;;;;;-3.70;94.31;62517.19;5073306;28;20204;-52
2024/01/14 06:23:30;;;;;;;16.17;7.23;;;;;;;-3.55;93.46;62527.88;5072791;28;20216;-53
2024/01/14 06:25:56;;;;;;;14.40;6.70;;;;;;;-3.49;90.74;62537.34;5073179;28;20240;-53
2024/01/14 06:28:22;;;;;;;11.83;6.27;;;;;;;-3.78;91.77;62506.09;5055427;28;20559;-53
2024/01/14 06:30:48;;;;;;;11.20;6.07;;;;;;;-3.55;91.37;62532.78;5073146;28;20200;-52
2024/01/14 06:33:14;;;;;;;13.63;6.93;;;;;;;-3.60;92.31;62525.50;5073205;28;20200;-51
2024/01/14 06:35:39;;;;;;;18.27;7.53;;;;;;;-3.36;91.05;62550.28;5073493;28;20601;-54
2024/01/14 06:38:08;;;;;;;12.47;6.10;;;;;;;-3.16;89.01;62572.41;5073001;28;20694;-59
2024/01/14 06:40:33;;;;;;;11.17;6.53;;;;;;;-3.04;86.92;62585.34;5072951;28;20667;-54
2024/01/14 06:42:59;;;;;;;10.57;6.33;;;;;;;-3.20;88.43;62565.63;5072930;28;20209;-54
2024/01/14 06:45:25;;;;;;;13.43;6.53;;;;;;;-3.14;88.20;62569.09;5073064;28;20672;-55
2024/01/14 06:47:50;;;;;;;10.67;5.77;;;;;;;-3.25;87.23;62562.16;5073081;28;20729;-54
2024/01/14 06:50:16;;;;;;;10.20;6.70;;;;;;;-3.43;89.59;62541.34;5073333;28;20192;-57
2024/01/14 06:52:42;;;;;;;18.70;6.90;;;;;;;-3.53;90.45;62533.03;5054708;28;20678;-55
2024/01/14 06:55:08;;;;;;;12.17;6.73;;;;;;;-3.43;89.90;62543.81;5054916;28;20258;-54
2024/01/14 06:57:34;;;;;;;12.47;6.20;;;;;;;-3.29;90.16;62557.84;5072837;28;20225;-52
2024/01/14 07:00:03;;;;;;;13.67;6.93;;;;;;;-3.16;88.88;62571.84;5054981;28;20190;-53
2024/01/14 07:02:29;;;;;;;15.73;7.63;;;;;;;-3.02;88.68;62586.97;5055213;28;20191;-52
2024/01/14 07:04:55;;;;;;;13.33;6.73;;;;;;;-2.79;87.70;62612.31;5054773;28;20230;-51
2024/01/14 07:07:21;;;;;;;14.23;7.03;;;;;;;-2.76;87.28;62617.47;5071335;28;20271;-52
2024/01/14 07:09:46;;;;;;;15.57;7.67;;;;;;;-2.37;85.70;62654.66;5072727;28;20189;-54
2024/01/14 07:12:12;;;;;;;14.33;6.63;;;;;;;-2.21;83.74;62674.38;5072727;28;20202;-54
2024/01/14 07:14:37;;;;;;;17.03;8.17;;;;;;;-2.49;87.24;62649.09;5072827;28;20745;-56
2024/01/14 07:17:03;;;;;;;13.90;7.70;;;;;;;-2.19;85.30;62679.00;5072680;28;20596;-53
2024/01/14 07:19:29;;;;;;;14.97;7.53;;;;;;;-2.33;88.19;62661.44;5072553;28;20647;-55
2024/01/14 07:21:56;;;;;;;15.93;8.43;;;;;;;-2.23;86.22;62669.22;5054690;28;20209;-54
2024/01/14 07:24:21;;;;;;;15.33;8.33;;;;;;;-1.94;84.43;62703.53;5054537;28;20293;-53
2024/01/14 07:26:47;;;;;;;14.57;7.10;;;;;;;-1.81;88.48;62717.03;5072377;28;20262;-53
2024/01/14 07:29:13;;;;;;;13.60;7.23;;;;;;;-1.87;86.72;62711.09;5072318;28;20322;-52
2024/01/14 07:31:39;;;;;;;16.90;8.20;;;;;;;-1.63;84.59;62736.47;5072182;28;20202;-54
2024/01/14 07:34:04;;;;;;;12.70;7.87;;;;;;;-1.61;85.25;62740.56;5054314;28;20222;-53
2024/01/14 07:36:30;;;;;;;15.87;6.73;;;;;;;-1.46;87.18;62754.84;5054632;28;20200;-52
2024/01/14 07:38:58;;;;;;;14.80;7.03;;;;;;;-1.08;82.54;62795.38;5072277;28;20276;-57
2024/01/14 07:41:24;;;;;;;14.03;7.43;;;;;;;-0.93;81.76;62812.13;5072251;28;20663;-54
2024/01/14 07:43:50;;;;;;;15.67;7.37;;;;;;;-0.83;81.06;62822.44;5072234;28;20212;-51
2024/01/14 07:46:15;;;;;;;17.13;8.90;;;;;;;-0.75;77.70;62828.59;5072009;28;20208;-53
2024/01/14 07:48:42;;;;;;;23.43;10.37;;;;;;;-0.84;77.55;62821.34;5054126;28;20281;-54
2024/01/14 07:51:07;;;;;;;24.97;10.87;;;;;;;-0.60;77.80;62846.75;5072096;28;20669;-54
2024/01/14 07:53:33;;;;;;;26.87;10.63;;;;;;;-0.61;78.16;62845.66;5071923;28;20200;-54
2024/01/14 07:55:58;;;;;;;27.17;13.33;;;;;;;-0.57;76.58;62850.53;5071808;28;20203;-52
2024/01/14 07:58:24;;;;;;;28.70;14.03;;;;;;;-0.73;81.28;62830.22;5053884;28;20216;-51
2024/01/14 08:00:50;;;;;;;29.70;13.43;;;;;;;-0.79;79.78;62826.19;5072012;28;20215;-52
2024/01/14 08:03:15;;;;;;;29.37;14.27;;;;;;;-0.47;76.66;62858.34;5071615;28;20201;-55
2024/01/14 08:05:42;;;;;;;30.83;16.20;;;;;;;-0.47;78.26;62858.34;5072062;28;20247;-54
2024/01/14 08:08:08;;;;;;;35.00;15.40;;;;;;;-0.28;75.87;62878.88;5071588;28;20209;-54
2024/01/14 08:10:34;;;;;;;34.17;15.80;;;;;;;-0.34;73.63;62874.88;5071625;28;20192;-54
2024/01/14 08:13:00;;;;;;;29.13;15.83;;;;;;;-0.30;73.74;62879.19;5071826;28;20204;-55
2024/01/14 08:15:26;;;;;;;31.73;16.50;;;;;;;0.03;72.87;62911.91;5071465;28;20196;-53
2024/01/14 08:17:52;;;;;;;40.10;15.33;;;;;;;0.33;72.02;62946.84;5071054;28;20318;-52
2024/01/14 08:20:18;;;;;;;27.93;15.37;;;;;;;0.57;69.73;62970.34;5071856;28;20722;-52
2024/01/14 08:22:43;;;;;;;31.77;15.57;;;;;;;0.83;68.65;63001.56;5071434;28;20621;-55
2024/01/14 08:25:10;;;;;;;26.60;14.43;;;;;;;1.10;68.09;63030.25;5071654;28;20230;-52
2024/01/14 08:27:39;;;;;;;31.57;17.00;;;;;;;1.40;67.80;63062.78;5071193;28;20224;-51
2024/01/14 08:30:05;;;;;;;28.10;15.50;;;;;;;1.73;65.96;63098.03;5053227;28;20200;-52
2024/01/14 08:32:31;;;;;;;25.23;13.37;;;;;;;2.12;64.72;63139.78;5071420;28;20205;-54
2024/01/14 08:34:57;;;;;;;31.03;14.87;;;;;;;2.45;62.27;63176.13;5071471;28;20189;-53
2024/01/14 08:37:23;;;;;;;27.60;15.63;;;;;;;2.65;62.46;63196.75;5071396;28;20279;-53
2024/01/14 08:39:50;;;;;;;25.90;13.47;;;;;;;2.84;60.92;63214.91;5071154;28;20201;-53
2024/01/14 08:42:17;;;;;;;28.00;15.70;;;;;;;3.12;59.31;63243.34;5071100;28;20211;-58
2024/01/14 08:44:43;;;;;;;37.80;18.10;;;;;;;3.30;58.58;63265.41;5053329;28;20296;-52
2024/01/14 08:47:08;;;;;;;30.07;16.27;;;;;;;3.29;59.03;63266.78;5071034;28;20304;-54
2024/01/14 08:49:34;;;;;;;34.50;15.97;;;;;;;3.32;56.20;63267.56;5053274;28;20201;-53
2024/01/14 08:52:01;;;;;;;25.67;15.73;;;;;;;3.22;56.82;63256.72;5071083;28;20620;-53
2024/01/14 08:54:36;;;;;;;36.27;16.27;;;;;;;3.40;56.30;63276.25;5052989;28;20208;-54
2024/01/14 08:57:01;;;;;;;33.13;15.43;;;;;;;3.50;56.35;63286.03;5071297;28;20218;-54
2024/01/14 08:59:27;;;;;;;28.23;14.23;;;;;;;3.74;55.42;63312.09;5070844;28;20192;-54
2024/01/14 09:01:53;;;;;;;27.90;14.83;;;;;;;4.20;54.14;63364.63;5052869;28;20245;-54
2024/01/14 09:04:19;;;;;;;31.10;14.43;;;;;;;4.67;53.00;63415.19;5070935;28;20197;-54
2024/01/14 09:06:45;;;;;;;27.07;12.90;;;;;;;5.05;52.07;63454.03;5052831;28;20226;-54
2024/01/14 09:09:11;;;;;;;27.03;14.17;;;;;;;5.36;51.84;63487.78;5070923;28;20234;-53
2024/01/14 09:11:37;;;;;;;26.83;14.97;;;;;;;5.39;51.35;63493.00;5070640;28;20185;-54
2024/01/14 09:14:02;;;;;;;30.67;16.23;;;;;;;5.61;51.41;63516.97;5070933;28;20192;-54
2024/01/14 09:16:28;;;;;;;28.77;16.67;;;;;;;5.67;50.51;63523.50;5070687;28;20241;-55
2024/01/14 09:18:54;;;;;;;29.83;16.43;;;;;;;5.44;50.98;63496.50;5052590;28;20669;-54
2024/01/14 09:21:19;;;;;;;31.30;16.73;;;;;;;5.27;50.75;63477.44;5070748;28;20224;-53
2024/01/14 09:23:45;;;;;;;34.83;17.73;;;;;;;5.44;50.66;63495.94;5070508;28;20208;-53
2024/01/14 09:26:10;;;;;;;34.63;18.40;;;;;;;5.16;51.18;63467.97;5070375;28;20705;-53
2024/01/14 09:28:36;;;;;;;32.23;17.37;;;;;;;4.47;51.77;63391.47;5070524;28;20212;-54
2024/01/14 09:31:02;;;;;;;34.50;18.93;;;;;;;4.30;52.92;63377.44;5072815;28;20191;-54
2024/01/14 09:33:28;;;;;;;27.90;17.47;;;;;;;4.76;51.64;63425.53;5073956;28;20722;-54
2024/01/14 09:35:55;;;;;;;31.03;17.97;;;;;;;4.78;50.97;63427.16;5074423;28;20242;-54
2024/01/14 09:38:21;;;;;;;32.13;16.53;;;;;;;4.85;50.45;63434.75;5073997;28;20218;-53
2024/01/14 09:40:57;;;;;;;32.63;16.67;;;;;;;5.20;50.28;63474.81;5074295;28;20285;-55
2024/01/14 09:43:25;;;;;;;31.27;15.80;;;;;;;4.99;50.37;63445.56;5074021;28;20263;-54
2024/01/14 09:45:51;;;;;;;32.37;16.60;;;;;;;4.78;50.60;63424.66;5074125;28;20224;-53
2024/01/14 09:48:18;;;;;;;34.10;17.73;;;;;;;5.05;49.58;63454.56;5074072;28;20265;-57
2024/01/14 09:50:44;;;;;;;32.80;17.40;;;;;;;5.56;50.16;63506.50;5074405;28;20200;-55
2024/01/14 09:53:14;;;;;;;29.57;15.93;;;;;;;5.87;49.73;63545.28;5073945;28;20837;-54
2024/01/14 09:55:40;;;;;;;33.50;16.87;;;;;;;5.97;48.38;63553.13;5074205;28;20204;-56
2024/01/14 09:58:06;;;;;;;26.20;14.97;;;;;;;6.15;46.57;63572.75;5074025;28;20303;-55
2024/01/14 10:00:36;;;;;;;28.57;15.00;;;;;;;5.70;46.67;63524.25;5073908;28;20193;-55
2024/01/14 10:03:02;;;;;;;28.43;14.93;;;;;;;5.70;46.88;63521.75;5073746;28;20212;-55
2024/01/14 10:05:27;;;;;;;22.93;13.97;;;;;;;5.93;47.40;63549.31;5073689;28;20192;-56
2024/01/14 10:07:53;;;;;;;28.33;15.33;;;;;;;6.55;46.56;63611.34;5073796;28;20200;-56
2024/01/14 10:10:19;;;;;;;29.93;15.70;;;;;;;6.83;45.90;63643.81;5073806;28;20192;-55
2024/01/14 10:12:46;;;;;;;27.03;15.33;;;;;;;7.37;44.63;63702.72;5073560;28;20201;-55
2024/01/14 10:15:12;;;;;;;25.33;14.87;;;;;;;6.97;44.39;63659.09;5073692;28;20738;-55
2024/01/14 10:17:38;;;;;;;24.40;14.87;;;;;;;6.61;44.94;63620.94;5060034;28;20295;-56
2024/01/14 10:20:06;;;;;;;27.63;14.90;;;;;;;6.37;46.14;63594.78;5069357;28;20219;-58
2024/01/14 10:22:33;;;;;;;29.83;15.07;;;;;;;6.89;46.75;63653.41;5069468;28;20213;-55
2024/01/14 10:24:58;;;;;;;27.97;15.10;;;;;;;7.18;45.99;63687.00;5038865;28;20220;-54
2024/01/14 10:27:26;;;;;;;27.93;13.73;;;;;;;6.35;45.83;63597.03;5073556;28;20240;-53
2024/01/14 10:29:51;;;;;;;30.73;15.33;;;;;;;6.14;45.89;63571.66;5055316;28;20197;-57
2024/01/14 10:32:20;;;;;;;24.57;13.50;;;;;;;6.32;44.68;63589.31;5073188;28;20690;-56
2024/01/14 10:34:45;;;;;;;26.67;14.57;;;;;;;6.05;46.28;63564.91;5055069;28;20277;-55
2024/01/14 10:37:12;;;;;;;24.53;13.47;;;;;;;5.96;45.94;63550.09;5073222;28;20694;-55
2024/01/14 10:39:38;;;;;;;22.40;12.10;;;;;;;6.03;46.52;63562.19;5054909;28;20192;-54
2024/01/14 10:42:04;;;;;;;27.83;14.70;;;;;;;6.25;45.52;63586.69;5021894;28;20282;-55
2024/01/14 10:44:30;;;;;;;25.33;14.07;;;;;;;6.08;45.79;63565.13;5071944;28;20658;-55
2024/01/14 10:47:01;;;;;;;23.63;13.67;;;;;;;6.20;45.89;63578.22;5071588;28;20212;-55
2024/01/14 10:49:27;;;;;;;25.77;13.27;;;;;;;6.48;45.26;63609.28;5073231;28;20181;-55
2024/01/14 10:51:58;;;;;;;26.80;14.47;;;;;;;6.59;46.46;63621.25;5072949;28;20269;-54
2024/01/14 10:54:39;;;;;;;28.77;13.50;;;;;;;6.29;46.13;63591.06;5072947;28;20208;-58
2024/01/14 10:57:08;;;;;;;22.43;11.30;;;;;;;6.61;44.33;63625.94;5080391;22;20247;-54
2024/01/14 10:59:36;;;;;;;24.93;11.50;;;;;;;6.78;43.40;63644.47;5072885;28;20188;-53
2024/01/14 11:02:12;;;;;;;23.47;11.40;;;;;;;7.29;43.79;63694.00;5054867;28;20240;-53
2024/01/14 11:04:37;;;;;;;22.87;11.87;;;;;;;7.16;44.68;63680.34;5073016;28;20231;-54
2024/01/14 11:07:04;;;;;;;22.97;13.23;;;;;;;7.62;45.35;63732.50;5080150;22;20229;-58
2024/01/14 11:09:29;;;;;;;24.33;13.03;;;;;;;7.94;43.36;63764.91;5072658;28;20177;-52
2024/01/14 11:12:06;;;;;;;18.87;11.10;;;;;;;7.37;43.79;63705.22;5073113;28;20261;-54
2024/01/14 11:14:44;;;;;;;19.80;10.30;;;;;;;6.52;43.82;63613.63;5072898;28;20318;-55
2024/01/14 11:17:28;;;;;;;17.37;9.97;;;;;;;6.24;45.29;63582.56;5072614;28;20216;-56